Time;durP1;ratioP1;P1;durP2;ratioP2;P2;SDS_P1;SDS_P2;PMS_P1;PMS_P2;Temp;Humidity;BMP_temperature;BMP_pressure;BME280_temperature;BME280_humidity;BME280_pressure;Samples;Min_cycle;Max_cycle;Signal;HPM_P1;HPM_P2
2023/04/01 00:00:26;;;;;;;7.32;1.65;;;;;;;9.96;100.00;98835.94;4913552;29;20036;-74
2023/04/01 00:02:52;;;;;;;10.50;1.90;;;;;;;9.93;100.00;98850.78;4901660;29;20092;-74
2023/04/01 00:05:18;;;;;;;9.55;1.55;;;;;;;9.98;100.00;98852.19;4902156;29;20098;-74
2023/04/01 00:07:43;;;;;;;4.35;1.40;;;;;;;9.91;100.00;98843.81;4919114;29;20123;-74
2023/04/01 00:10:14;;;;;;;11.82;1.70;;;;;;;9.89;100.00;98834.91;4902820;29;20479;-74
2023/04/01 00:12:40;;;;;;;6.03;1.35;;;;;;;9.84;100.00;98832.69;4921265;29;20396;-74
2023/04/01 00:15:07;;;;;;;12.85;1.88;;;;;;;9.88;100.00;98844.97;4899968;29;20152;-74
2023/04/01 00:17:33;;;;;;;9.27;1.77;;;;;;;9.84;100.00;98846.34;4920367;29;20044;-75
2023/04/01 00:19:59;;;;;;;13.13;2.40;;;;;;;9.88;100.00;98846.88;4914167;29;20041;-73
2023/04/01 00:22:26;;;;;;;7.00;1.73;;;;;;;9.82;100.00;98842.06;4854598;29;20039;-73
2023/04/01 00:24:51;;;;;;;8.85;1.45;;;;;;;9.82;100.00;98844.78;4902211;29;20040;-73
2023/04/01 00:27:17;;;;;;;12.27;2.40;;;;;;;9.73;100.00;98842.03;4917449;29;20040;-72
2023/04/01 00:29:43;;;;;;;7.10;1.77;;;;;;;9.78;100.00;98847.00;4902807;29;20099;-73
2023/04/01 00:32:09;;;;;;;9.15;2.28;;;;;;;9.75;100.00;98836.41;4919206;29;20140;-74
2023/04/01 00:34:34;;;;;;;5.22;1.60;;;;;;;9.83;100.00;98844.63;4896556;29;20152;-74
2023/04/01 00:37:03;;;;;;;4.93;1.52;;;;;;;9.77;100.00;98839.81;4901735;29;20040;-75
2023/04/01 00:39:31;;;;;;;8.20;1.67;;;;;;;9.77;100.00;98841.72;4919994;29;20036;-75
2023/04/01 00:41:56;;;;;;;7.60;2.28;;;;;;;9.82;100.00;98856.59;4924712;29;20047;-75
2023/04/01 00:44:25;;;;;;;8.45;2.10;;;;;;;9.80;100.00;98844.97;4903471;29;20062;-74
2023/04/01 00:46:52;;;;;;;13.60;1.50;;;;;;;9.84;100.00;98848.22;4901934;29;20135;-74
2023/04/01 00:49:20;;;;;;;13.10;2.08;;;;;;;9.88;100.00;98839.50;4934402;29;20052;-74
2023/04/01 00:51:50;;;;;;;6.47;1.52;;;;;;;9.75;100.00;98853.66;4918867;29;20036;-75
2023/04/01 00:54:18;;;;;;;6.57;2.03;;;;;;;9.82;100.00;98851.13;4917093;29;20068;-74
2023/04/01 00:56:55;;;;;;;9.50;1.67;;;;;;;9.70;100.00;98850.56;4932563;29;20062;-76
2023/04/01 00:59:27;;;;;;;12.30;2.05;;;;;;;9.85;100.00;98841.72;4936598;29;20047;-74
2023/04/01 01:01:52;;;;;;;6.35;2.63;;;;;;;9.87;100.00;98856.06;4935783;29;20035;-74
2023/04/01 01:04:27;;;;;;;6.88;1.10;;;;;;;9.82;100.00;98859.34;4931195;29;20539;-73
2023/04/01 01:07:30;;;;;;;4.15;1.40;;;;;;;9.92;100.00;98867.41;4901839;29;20119;-74
2023/04/01 01:10:18;;;;;;;5.20;2.50;;;;;;;9.90;100.00;98866.69;4918490;29;20047;-73
2023/04/01 01:12:44;;;;;;;13.13;2.50;;;;;;;9.89;100.00;98865.84;4915791;29;20036;-73
2023/04/01 01:15:32;;;;;;;3.13;1.60;;;;;;;9.94;100.00;98879.84;4915831;29;20095;-73
2023/04/01 01:18:13;;;;;;;5.00;1.73;;;;;;;9.88;100.00;98869.56;4931982;29;20039;-73
2023/04/01 01:21:11;;;;;;;5.15;2.60;;;;;;;9.91;100.00;98868.41;4926508;29;20030;-74
2023/04/01 01:23:56;;;;;;;6.60;1.75;;;;;;;9.87;100.00;98878.81;4899448;29;20036;-74
2023/04/01 01:26:54;;;;;;;6.65;1.52;;;;;;;9.78;100.00;98881.69;4925533;29;20036;-73
2023/04/01 01:29:44;;;;;;;15.65;1.58;;;;;;;9.85;100.00;98871.78;4918594;29;20489;-73
2023/04/01 01:32:28;;;;;;;4.15;1.42;;;;;;;9.77;100.00;98878.09;4885444;29;20122;-74
2023/04/01 01:35:12;;;;;;;7.50;1.90;;;;;;;9.73;100.00;98872.09;4884839;29;20029;-74
2023/04/01 01:37:40;;;;;;;6.00;1.83;;;;;;;9.72;100.00;98880.47;4902805;29;20480;-73
2023/04/01 01:40:13;;;;;;;5.38;1.52;;;;;;;9.69;100.00;98887.13;4904257;29;20115;-73
2023/04/01 01:42:48;;;;;;;5.38;1.30;;;;;;;9.81;100.00;98884.09;4900115;29;20051;-73
2023/04/01 01:45:18;;;;;;;5.30;1.60;;;;;;;9.78;100.00;98877.06;4917378;29;20143;-72
2023/04/01 01:47:45;;;;;;;7.80;1.30;;;;;;;9.80;100.00;98893.31;4901189;29;20404;-73
2023/04/01 01:50:15;;;;;;;6.50;1.40;;;;;;;9.73;100.00;98891.22;4901534;29;20099;-73
2023/04/01 01:52:40;;;;;;;4.88;1.50;;;;;;;9.74;100.00;98890.22;4931731;29;20400;-74
2023/04/01 01:55:28;;;;;;;7.30;1.75;;;;;;;9.72;100.00;98892.25;4898250;29;20032;-74
2023/04/01 01:57:58;;;;;;;5.60;1.88;;;;;;;9.74;100.00;98892.94;4922989;29;20063;-73
2023/04/01 02:00:24;;;;;;;7.78;1.60;;;;;;;9.75;100.00;98893.78;4923711;29;20083;-73
2023/04/01 02:02:50;;;;;;;7.05;2.22;;;;;;;9.71;100.00;98887.81;4932543;29;20494;-74
2023/04/01 02:05:23;;;;;;;7.10;1.90;;;;;;;9.78;100.00;98892.63;4885313;29;20032;-74
2023/04/01 02:08:03;;;;;;;5.82;2.05;;;;;;;9.82;100.00;98904.91;4917217;29;20036;-73
2023/04/01 02:10:35;;;;;;;2.10;1.83;;;;;;;9.72;100.00;98900.47;4917654;29;20032;-74
2023/04/01 02:13:06;;;;;;;2.00;1.48;;;;;;;9.71;100.00;98903.34;4918410;29;20052;-73
2023/04/01 02:15:36;;;;;;;3.15;1.85;;;;;;;9.71;100.00;98904.22;4923694;29;20037;-75
2023/04/01 02:18:03;;;;;;;2.40;1.52;;;;;;;9.73;100.00;98904.03;4899356;29;20151;-75
2023/04/01 02:20:30;;;;;;;5.95;2.42;;;;;;;9.80;100.00;98910.56;4888762;29;20106;-76
2023/04/01 02:22:59;;;;;;;3.90;2.15;;;;;;;9.78;100.00;98912.59;4918069;29;20074;-75
2023/04/01 02:25:33;;;;;;;8.63;2.70;;;;;;;9.73;100.00;98910.34;4918026;29;20040;-76
2023/04/01 02:28:03;;;;;;;3.40;2.40;;;;;;;9.66;100.00;98930.31;4918292;29;20056;-75
2023/04/01 02:30:31;;;;;;;3.50;2.40;;;;;;;9.67;100.00;98915.63;4931342;29;20098;-76
2023/04/01 02:32:58;;;;;;;6.55;2.78;;;;;;;9.74;100.00;98917.53;4901611;29;20526;-75
2023/04/01 02:35:25;;;;;;;8.88;3.10;;;;;;;9.77;100.00;98915.50;4888314;29;20059;-75
2023/04/01 02:37:52;;;;;;;4.22;2.42;;;;;;;9.82;100.00;98915.84;4901051;29;20040;-74
2023/04/01 02:40:18;;;;;;;9.02;3.20;;;;;;;9.76;100.00;98917.38;4922264;29;20032;-75
2023/04/01 02:42:45;;;;;;;7.93;3.28;;;;;;;9.78;100.00;98917.22;4902624;29;20052;-74
2023/04/01 02:45:12;;;;;;;8.35;3.67;;;;;;;9.76;100.00;98925.59;4920688;29;20448;-75
2023/04/01 02:47:37;;;;;;;8.32;4.25;;;;;;;9.78;100.00;98919.94;4918050;29;20076;-74
2023/04/01 02:50:03;;;;;;;7.57;3.92;;;;;;;9.85;100.00;98921.00;4904731;29;20036;-75
2023/04/01 02:52:30;;;;;;;6.88;3.78;;;;;;;9.91;100.00;98928.53;4904692;29;20040;-74
2023/04/01 02:54:56;;;;;;;9.18;4.15;;;;;;;9.88;100.00;98937.06;4893163;29;20040;-74
2023/04/01 02:57:22;;;;;;;10.23;4.03;;;;;;;9.80;100.00;98929.69;4919582;29;20044;-74
2023/04/01 02:59:48;;;;;;;8.95;4.10;;;;;;;9.89;100.00;98933.31;4904385;29;20038;-75
2023/04/01 03:02:14;;;;;;;6.75;4.07;;;;;;;9.94;100.00;98933.69;4934242;29;20193;-74
2023/04/01 03:04:39;;;;;;;10.05;4.43;;;;;;;9.71;100.00;98927.97;4904773;29;20063;-74
2023/04/01 03:07:05;;;;;;;7.38;4.20;;;;;;;9.84;100.00;98938.41;4901356;29;20075;-75
2023/04/01 03:09:30;;;;;;;9.25;3.75;;;;;;;9.91;100.00;98939.47;4924016;29;20123;-76
2023/04/01 03:11:56;;;;;;;14.23;4.82;;;;;;;9.90;100.00;98937.75;4918979;29;20515;-75
2023/04/01 03:14:22;;;;;;;7.82;4.07;;;;;;;10.03;100.00;98945.50;4920126;29;20066;-75
2023/04/01 03:16:47;;;;;;;11.98;3.95;;;;;;;9.74;100.00;98939.41;4902826;29;20070;-75
2023/04/01 03:19:12;;;;;;;7.30;3.83;;;;;;;9.79;100.00;98940.78;4936065;29;20036;-75
2023/04/01 03:21:38;;;;;;;8.02;3.95;;;;;;;9.78;100.00;98944.56;4872254;29;20038;-74
2023/04/01 03:24:04;;;;;;;7.32;3.75;;;;;;;10.00;100.00;98946.69;4919872;29;20408;-75
2023/04/01 03:26:29;;;;;;;13.85;4.57;;;;;;;9.91;100.00;98954.00;4935331;29;20095;-74
2023/04/01 03:28:55;;;;;;;15.45;5.97;;;;;;;9.86;100.00;98950.06;4920479;29;20492;-74
2023/04/01 03:31:21;;;;;;;10.00;5.78;;;;;;;9.88;100.00;98948.00;4875733;29;20059;-74
2023/04/01 03:33:47;;;;;;;13.25;7.05;;;;;;;9.88;100.00;98954.31;4919222;29;20063;-74
2023/04/01 03:36:13;;;;;;;14.45;8.10;;;;;;;9.85;100.00;98951.06;4892005;29;20421;-74
2023/04/01 03:38:41;;;;;;;20.00;9.77;;;;;;;9.94;100.00;98961.03;4901359;29;20033;-75
2023/04/01 03:41:07;;;;;;;20.45;8.75;;;;;;;9.85;100.00;98951.91;4918169;29;20103;-77
2023/04/01 03:43:33;;;;;;;17.83;9.00;;;;;;;9.74;100.00;98950.34;4919920;29;20393;-75
2023/04/01 03:45:58;;;;;;;21.75;9.18;;;;;;;9.83;100.00;98956.69;4890566;29;20087;-75
2023/04/01 03:48:25;;;;;;;21.40;9.15;;;;;;;9.82;100.00;98955.00;4906983;29;20689;-75
2023/04/01 03:50:51;;;;;;;18.77;10.00;;;;;;;9.87;100.00;98960.81;4918121;29;20095;-75
2023/04/01 03:53:16;;;;;;;24.02;10.50;;;;;;;9.87;100.00;98966.28;4920320;29;20067;-75
2023/04/01 03:55:42;;;;;;;21.83;10.15;;;;;;;9.78;100.00;98964.53;4902114;29;20032;-74
2023/04/01 03:58:07;;;;;;;23.98;9.75;;;;;;;9.67;100.00;98964.81;4903968;29;20195;-74
2023/04/01 04:00:33;;;;;;;17.45;7.60;;;;;;;9.59;100.00;98964.75;4920671;29;20048;-76
2023/04/01 04:02:59;;;;;;;18.05;8.95;;;;;;;9.50;100.00;98972.06;4920621;29;20036;-74
2023/04/01 04:05:25;;;;;;;17.05;8.73;;;;;;;9.47;100.00;98967.78;4928274;29;20567;-74
2023/04/01 04:07:52;;;;;;;16.63;9.48;;;;;;;9.59;100.00;98968.34;4902084;29;20142;-75
2023/04/01 04:10:18;;;;;;;17.17;8.00;;;;;;;9.57;100.00;98964.94;4919786;29;20373;-77
2023/04/01 04:12:44;;;;;;;20.88;9.32;;;;;;;9.54;100.00;98971.59;4920042;29;20047;-74
2023/04/01 04:15:10;;;;;;;17.85;9.02;;;;;;;9.46;100.00;98973.41;4919165;29;20476;-74
2023/04/01 04:17:36;;;;;;;18.63;8.80;;;;;;;9.43;100.00;98974.59;4902822;29;20044;-75
2023/04/01 04:20:02;;;;;;;16.65;9.20;;;;;;;9.49;100.00;98978.53;4903557;29;20039;-74
2023/04/01 04:22:27;;;;;;;20.30;9.85;;;;;;;9.53;100.00;98979.94;4902717;29;20040;-74
2023/04/01 04:24:52;;;;;;;14.77;9.20;;;;;;;9.63;100.00;98986.16;4902766;29;20047;-74
2023/04/01 04:27:18;;;;;;;19.17;9.45;;;;;;;9.61;100.00;98977.25;4902906;29;20040;-75
2023/04/01 04:29:44;;;;;;;18.30;9.07;;;;;;;9.62;100.00;98981.69;4886899;29;20040;-74
2023/04/01 04:32:09;;;;;;;18.50;8.77;;;;;;;9.64;100.00;98987.88;4919180;29;20040;-74
2023/04/01 04:34:34;;;;;;;19.25;9.68;;;;;;;9.62;100.00;98989.03;4918207;29;20052;-74
2023/04/01 04:37:03;;;;;;;19.58;9.18;;;;;;;9.62;100.00;98984.41;4886296;29;20139;-74
2023/04/01 04:39:29;;;;;;;17.10;9.15;;;;;;;9.57;100.00;98992.25;4903308;29;20040;-74
2023/04/01 04:41:54;;;;;;;17.52;10.07;;;;;;;9.65;100.00;98984.09;4901978;29;20099;-74
2023/04/01 04:44:20;;;;;;;17.15;9.63;;;;;;;9.66;100.00;98999.47;4917385;28;20143;-76
2023/04/01 04:46:45;;;;;;;20.55;10.70;;;;;;;9.62;100.00;98995.34;4886397;29;20312;-75
2023/04/01 04:49:14;;;;;;;22.55;10.48;;;;;;;9.64;100.00;99006.13;4921371;29;20036;-74
2023/04/01 04:51:39;;;;;;;23.63;11.00;;;;;;;9.56;100.00;98996.03;4903876;29;20451;-73
2023/04/01 04:54:06;;;;;;;19.98;10.68;;;;;;;9.60;100.00;99004.75;4917338;29;20040;-73
2023/04/01 04:56:32;;;;;;;19.58;9.98;;;;;;;9.42;100.00;98985.66;4919101;29;20064;-74
2023/04/01 04:58:58;;;;;;;20.00;9.85;;;;;;;9.54;100.00;99015.31;4917324;29;20036;-74
2023/04/01 05:01:24;;;;;;;19.80;9.60;;;;;;;9.38;100.00;99009.72;4919252;29;20035;-74
2023/04/01 05:03:50;;;;;;;22.27;9.05;;;;;;;9.45;100.00;99010.78;4932921;29;20405;-74
2023/04/01 05:06:16;;;;;;;20.95;9.05;;;;;;;9.52;100.00;99020.03;4918563;29;20042;-74
2023/04/01 05:08:43;;;;;;;19.45;10.00;;;;;;;9.37;100.00;99013.47;4919109;29;20028;-75
2023/04/01 05:11:14;;;;;;;21.15;10.48;;;;;;;9.42;100.00;99013.84;4902458;29;20480;-74
2023/04/01 05:13:41;;;;;;;22.15;10.10;;;;;;;9.41;100.00;99011.25;4933144;29;20506;-74
2023/04/01 05:16:11;;;;;;;22.45;10.07;;;;;;;9.41;100.00;99019.47;4886104;29;20409;-74
2023/04/01 05:18:37;;;;;;;23.00;9.60;;;;;;;9.45;100.00;99026.34;4882636;29;20035;-74
2023/04/01 05:21:03;;;;;;;21.45;10.35;;;;;;;9.39;100.00;99025.06;4912676;29;20040;-74
2023/04/01 05:23:31;;;;;;;22.05;10.30;;;;;;;9.45;100.00;99027.19;4907101;29;20092;-74
2023/04/01 05:25:56;;;;;;;21.15;9.55;;;;;;;9.44;100.00;99030.91;4899952;29;20495;-74
2023/04/01 05:28:22;;;;;;;21.15;10.32;;;;;;;9.51;100.00;99034.75;4902446;29;20032;-74
2023/04/01 05:30:48;;;;;;;18.98;9.45;;;;;;;9.53;100.00;99032.69;4902606;29;20040;-74
2023/04/01 05:33:14;;;;;;;20.40;9.38;;;;;;;9.49;100.00;99036.75;4902015;29;20036;-74
2023/04/01 05:35:40;;;;;;;22.90;9.23;;;;;;;9.52;100.00;99047.38;4903298;29;20058;-75
2023/04/01 05:38:05;;;;;;;21.30;9.45;;;;;;;9.49;100.00;99044.09;4899495;29;20028;-74
2023/04/01 05:40:31;;;;;;;18.50;8.65;;;;;;;9.50;100.00;99054.03;4889282;29;20053;-74
2023/04/01 05:42:58;;;;;;;22.13;8.90;;;;;;;9.46;100.00;99058.94;4924998;28;20087;-73
2023/04/01 05:45:24;;;;;;;19.77;9.27;;;;;;;9.52;100.00;99047.38;4902044;29;20484;-74
2023/04/01 05:47:50;;;;;;;18.88;8.85;;;;;;;9.48;100.00;99058.78;4917819;29;20032;-74
2023/04/01 05:50:16;;;;;;;15.40;7.65;;;;;;;9.50;100.00;99068.53;4931613;29;20048;-77
2023/04/01 05:52:42;;;;;;;14.68;7.35;;;;;;;9.58;100.00;99054.09;4901387;29;20527;-74
2023/04/01 05:55:10;;;;;;;19.67;8.35;;;;;;;9.56;100.00;99075.25;4891346;29;20488;-75
2023/04/01 05:57:36;;;;;;;15.35;7.72;;;;;;;9.63;100.00;99078.19;4884557;29;20043;-74
2023/04/01 06:00:01;;;;;;;12.57;6.75;;;;;;;9.46;100.00;99071.72;4920539;29;20136;-75
2023/04/01 06:02:27;;;;;;;20.17;7.70;;;;;;;9.51;100.00;99077.56;4918770;29;20110;-75
2023/04/01 06:05:20;;;;;;;15.57;6.75;;;;;;;9.41;100.00;99068.63;4923465;29;20040;-76
2023/04/01 06:07:46;;;;;;;11.93;5.97;;;;;;;9.60;100.00;99082.09;4888618;29;20507;-75
2023/04/01 06:10:15;;;;;;;15.93;7.38;;;;;;;9.67;100.00;99091.34;4897163;29;20111;-74
2023/04/01 06:12:51;;;;;;;18.33;7.13;;;;;;;9.58;100.00;99092.34;4896917;29;20032;-74
2023/04/01 06:15:34;;;;;;;16.33;6.47;;;;;;;9.57;100.00;99088.75;4897464;29;20155;-74
2023/04/01 06:18:43;;;;;;;17.77;6.13;;;;;;;9.61;100.00;99102.94;4924698;29;20480;-77
2023/04/01 06:21:31;;;;;;;13.68;5.88;;;;;;;9.45;100.00;99102.81;4853578;29;20045;-74
2023/04/01 06:24:21;;;;;;;15.38;7.00;;;;;;;9.47;100.00;99100.78;4848527;29;20038;-73
2023/04/01 06:27:07;;;;;;;14.50;6.25;;;;;;;9.50;100.00;99106.78;4893313;29;20067;-75
2023/04/01 06:30:09;;;;;;;16.30;6.97;;;;;;;9.47;100.00;99108.97;4921251;29;20039;-74
2023/04/01 06:32:53;;;;;;;14.23;6.85;;;;;;;9.54;100.00;99113.66;4911111;29;20040;-74
2023/04/01 06:35:40;;;;;;;16.63;6.30;;;;;;;9.56;100.00;99110.78;4913439;29;20174;-74
2023/04/01 06:38:23;;;;;;;19.98;7.63;;;;;;;9.55;100.00;99119.97;4914922;29;20571;-74
2023/04/01 06:41:22;;;;;;;21.02;8.02;;;;;;;9.55;100.00;99126.28;4927453;29;20535;-74
2023/04/01 06:43:53;;;;;;;27.52;9.85;;;;;;;9.60;100.00;99128.53;4868005;29;20048;-76
2023/04/01 06:46:32;;;;;;;21.35;8.38;;;;;;;9.51;100.00;99115.81;4916860;29;20051;-75
2023/04/01 06:49:00;;;;;;;22.55;8.90;;;;;;;9.65;100.00;99126.19;4900822;29;20029;-75
2023/04/01 06:51:58;;;;;;;24.20;8.88;;;;;;;9.80;100.00;99134.66;4918290;29;20032;-75
2023/04/01 06:54:34;;;;;;;24.95;8.45;;;;;;;9.75;100.00;99148.81;4893498;29;20040;-75
2023/04/01 06:57:18;;;;;;;26.77;9.35;;;;;;;9.88;100.00;99144.81;4899310;29;20115;-75
2023/04/01 06:59:44;;;;;;;21.30;7.95;;;;;;;9.85;100.00;99150.59;4916153;29;20115;-75
2023/04/01 07:02:09;;;;;;;24.95;8.57;;;;;;;9.88;100.00;99145.66;4883574;29;20151;-75
2023/04/01 07:04:46;;;;;;;28.13;9.18;;;;;;;9.90;100.00;99153.72;4899233;29;20036;-75
2023/04/01 07:07:35;;;;;;;20.98;7.95;;;;;;;9.85;100.00;99165.13;4868012;29;20127;-77
2023/04/01 07:10:05;;;;;;;25.65;8.85;;;;;;;9.95;100.00;99165.03;4925195;29;20028;-78
2023/04/01 07:12:30;;;;;;;59.13;11.73;;;;;;;10.01;100.00;99169.00;4900133;29;20126;-77
2023/04/01 07:14:58;;;;;;;24.73;8.88;;;;;;;9.89;100.00;99154.75;4915045;29;20086;-77
2023/04/01 07:17:31;;;;;;;25.40;9.55;;;;;;;9.94;100.00;99161.44;4916031;29;20041;-77
2023/04/01 07:20:26;;;;;;;30.88;10.98;;;;;;;10.02;100.00;99166.13;4915491;29;20036;-77
2023/04/01 07:22:56;;;;;;;31.90;11.13;;;;;;;10.01;100.00;99175.31;4913478;29;20443;-77
2023/04/01 07:25:37;;;;;;;36.50;11.68;;;;;;;10.14;100.00;99174.06;4892748;29;20033;-77
2023/04/01 07:28:12;;;;;;;42.53;13.77;;;;;;;10.24;100.00;99181.13;4918821;29;20048;-77
2023/04/01 07:31:01;;;;;;;39.17;12.75;;;;;;;10.12;100.00;99185.16;4919411;29;20040;-77
2023/04/01 07:33:52;;;;;;;48.40;14.07;;;;;;;10.14;100.00;99190.47;4902516;29;20071;-77
2023/04/01 07:36:41;;;;;;;43.92;14.30;;;;;;;10.17;100.00;99195.63;4830983;29;20089;-77
2023/04/01 07:39:33;;;;;;;51.17;15.18;;;;;;;10.19;100.00;99199.91;4907258;29;20057;-76
2023/04/01 07:42:15;;;;;;;64.28;17.63;;;;;;;10.32;100.00;99196.78;4887630;29;20092;-78
2023/04/01 07:44:50;;;;;;;58.45;17.48;;;;;;;10.44;100.00;99200.94;4934018;29;20497;-77
2023/04/01 07:47:32;;;;;;;58.53;18.55;;;;;;;10.46;100.00;99193.44;4909830;29;20068;-77
2023/04/01 07:50:29;;;;;;;65.53;20.80;;;;;;;10.48;100.00;99218.75;4920104;29;20032;-77
2023/04/01 07:53:25;;;;;;;68.95;21.48;;;;;;;10.30;100.00;99212.47;4902711;29;20048;-76
2023/04/01 07:56:16;;;;;;;67.05;21.48;;;;;;;10.35;100.00;99223.81;4902298;29;20040;-77
2023/04/01 07:58:54;;;;;;;68.70;21.23;;;;;;;10.40;100.00;99223.34;4911365;29;20044;-78
2023/04/01 08:01:49;;;;;;;71.05;21.45;;;;;;;10.33;100.00;99227.72;4918207;29;20036;-77
2023/04/01 08:04:58;;;;;;;79.05;21.17;;;;;;;10.34;100.00;99229.44;4901289;29;20722;-77
2023/04/01 08:07:25;;;;;;;64.57;19.52;;;;;;;10.19;100.00;99238.19;4919194;29;20039;-77
2023/04/01 08:09:54;;;;;;;69.07;21.80;;;;;;;10.28;100.00;99244.56;4933783;29;20429;-77
2023/04/01 08:12:30;;;;;;;70.40;20.10;;;;;;;10.32;100.00;99251.50;4917826;29;20420;-77
2023/04/01 08:15:08;;;;;;;69.32;21.05;;;;;;;10.24;100.00;99244.03;4933728;29;20069;-77
2023/04/01 08:17:40;;;;;;;71.75;21.70;;;;;;;10.30;100.00;99251.63;4933859;29;20033;-78
2023/04/01 08:20:19;;;;;;;82.33;23.30;;;;;;;10.24;100.00;99257.72;4933637;29;20555;-77
2023/04/01 08:22:58;;;;;;;82.43;23.55;;;;;;;10.26;100.00;99255.69;4911016;29;20307;-77
2023/04/01 08:25:26;;;;;;;80.68;23.45;;;;;;;10.30;100.00;99267.19;4926930;29;20036;-77
2023/04/01 08:28:03;;;;;;;76.90;24.20;;;;;;;10.47;100.00;99262.69;4902737;29;20037;-76
2023/04/01 08:30:50;;;;;;;67.20;23.05;;;;;;;10.44;100.00;99263.03;4882907;29;20044;-78
2023/04/01 08:33:23;;;;;;;67.00;22.30;;;;;;;10.47;100.00;99277.22;4898624;29;20064;-77
2023/04/01 08:36:12;;;;;;;67.72;23.85;;;;;;;10.58;100.00;99278.00;4898850;29;20032;-76
2023/04/01 08:38:43;;;;;;;65.70;22.58;;;;;;;10.57;100.00;99271.66;4914849;29;20087;-77
2023/04/01 08:41:47;;;;;;;68.50;21.55;;;;;;;10.62;100.00;99277.50;4917573;29;20070;-76
2023/04/01 08:44:34;;;;;;;58.60;22.85;;;;;;;10.75;100.00;99281.69;4901363;29;20072;-77
2023/04/01 08:47:05;;;;;;;67.60;24.52;;;;;;;10.82;100.00;99296.44;4901738;29;20042;-77
2023/04/01 08:49:59;;;;;;;53.08;20.80;;;;;;;10.83;100.00;99292.69;4917457;29;20115;-77
2023/04/01 08:52:35;;;;;;;;;;;;;;;10.85;100.00;99296.13;4902468;29;20160;-77
2023/04/01 08:55:26;;;;;;;51.55;20.00;;;;;;;10.71;100.00;99296.72;4918419;29;19918;-77
2023/04/01 08:57:58;;;;;;;61.92;20.17;;;;;;;10.67;100.00;99304.41;4901775;29;20071;-77
2023/04/01 09:00:44;;;;;;;53.53;19.50;;;;;;;10.70;100.00;99309.56;4915965;29;20032;-76
2023/04/01 09:03:29;;;;;;;43.20;19.27;;;;;;;10.64;100.00;99313.81;4903030;29;20348;-77
2023/04/01 09:06:09;;;;;;;43.55;18.65;;;;;;;10.59;100.00;99318.91;4929600;29;20032;-77
2023/04/01 09:08:53;;;;;;;49.38;19.65;;;;;;;10.60;100.00;99325.22;4897630;29;20040;-77
2023/04/01 09:11:22;;;;;;;42.15;18.75;;;;;;;10.61;100.00;99318.75;4895767;29;20070;-76
2023/04/01 09:14:19;;;;;;;52.65;19.42;;;;;;;10.61;100.00;99321.50;4899745;29;20048;-75
2023/04/01 09:17:12;;;;;;;42.70;19.55;;;;;;;10.65;100.00;99323.72;4895702;29;20035;-76
2023/04/01 09:19:51;;;;;;;52.53;19.73;;;;;;;10.78;100.00;99320.56;4918305;29;20051;-76
2023/04/01 09:22:27;;;;;;;42.20;19.10;;;;;;;10.95;100.00;99329.75;4913904;29;20510;-75
2023/04/01 09:24:59;;;;;;;49.80;18.70;;;;;;;10.86;100.00;99333.44;4933941;29;20036;-76
2023/04/01 09:27:39;;;;;;;40.05;18.40;;;;;;;11.19;100.00;99342.72;4919816;29;20610;-75
2023/04/01 09:30:31;;;;;;;38.63;16.58;;;;;;;11.47;100.00;99336.16;4901268;29;20396;-76
2023/04/01 09:33:42;;;;;;;28.60;15.35;;;;;;;11.36;100.00;99340.03;4901311;29;20036;-76
2023/04/01 09:36:21;;;;;;;33.28;15.65;;;;;;;11.44;100.00;99348.31;4876652;29;20499;-78
2023/04/01 09:39:19;;;;;;;25.83;15.00;;;;;;;11.49;100.00;99351.41;4916375;29;20535;-77
2023/04/01 09:42:00;;;;;;;30.05;15.48;;;;;;;11.44;100.00;99350.19;4913141;29;20046;-77
2023/04/01 09:44:31;;;;;;;27.60;13.82;;;;;;;11.57;100.00;99364.28;4915169;29;20491;-77
2023/04/01 09:47:06;;;;;;;24.92;14.45;;;;;;;11.51;100.00;99362.22;4910031;29;20063;-78
2023/04/01 09:49:55;;;;;;;29.52;15.88;;;;;;;11.62;100.00;99358.31;4906343;29;20111;-78
2023/04/01 09:52:36;;;;;;;33.80;15.07;;;;;;;11.59;100.00;99367.72;4918150;29;20040;-77
2023/04/01 09:55:10;;;;;;;25.02;14.50;;;;;;;11.65;100.00;99366.22;4916120;29;20048;-77
2023/04/01 09:58:14;;;;;;;42.38;16.42;;;;;;;11.54;100.00;99373.72;4916350;29;20106;-77
2023/04/01 10:00:49;;;;;;;21.27;12.70;;;;;;;11.52;100.00;99374.91;4931954;29;20059;-77
2023/04/01 10:03:36;;;;;;;20.77;11.25;;;;;;;11.45;100.00;99379.34;4912611;29;20051;-79
2023/04/01 10:06:33;;;;;;;17.85;10.45;;;;;;;11.61;100.00;99378.53;4902530;29;20127;-79
2023/04/01 10:09:15;;;;;;;19.25;10.70;;;;;;;11.42;100.00;99383.25;4936948;28;20032;-77
2023/04/01 10:11:49;;;;;;;19.35;10.15;;;;;;;11.52;100.00;99388.59;4914182;29;20090;-77
2023/04/01 10:14:52;;;;;;;16.27;9.77;;;;;;;11.40;100.00;99386.16;4903511;29;20463;-79
2023/04/01 10:17:33;;;;;;;17.67;10.63;;;;;;;11.42;100.00;99399.69;4901440;29;20111;-79
2023/04/01 10:20:49;;;;;;;15.23;8.90;;;;;;;11.26;100.00;99399.59;4905495;29;20044;-79
2023/04/01 10:23:52;;;;;;;10.52;7.53;;;;;;;11.13;100.00;99402.78;4902087;29;20056;-78
2023/04/01 10:26:56;;;;;;;12.27;8.02;;;;;;;11.25;100.00;99398.75;4913037;29;20477;-78
2023/04/01 10:29:36;;;;;;;10.70;7.10;;;;;;;11.17;100.00;99405.03;4881692;29;20076;-79
2023/04/01 10:32:43;;;;;;;9.40;7.30;;;;;;;11.06;100.00;99415.41;4896774;29;20500;-78
2023/04/01 10:35:08;;;;;;;10.77;7.13;;;;;;;11.00;100.00;99417.75;4892727;29;20028;-80
2023/04/01 10:37:54;;;;;;;12.15;8.20;;;;;;;10.96;100.00;99420.97;4908040;29;20028;-78
2023/04/01 10:40:37;;;;;;;15.00;7.72;;;;;;;11.10;100.00;99420.41;4899863;29;20048;-78
2023/04/01 10:43:09;;;;;;;15.02;8.90;;;;;;;11.27;100.00;99420.50;4899022;29;20059;-78
2023/04/01 10:46:07;;;;;;;14.50;8.77;;;;;;;11.16;100.00;99421.63;4916785;29;20357;-78
2023/04/01 10:48:52;;;;;;;12.88;8.98;;;;;;;11.23;100.00;99417.22;4885791;29;20052;-79
2023/04/01 10:51:36;;;;;;;16.92;10.60;;;;;;;11.34;100.00;99427.91;4915206;29;20514;-78
2023/04/01 10:54:35;;;;;;;14.00;10.63;;;;;;;11.30;100.00;99428.41;4914535;29;20040;-78
2023/04/01 10:57:12;;;;;;;15.93;10.32;;;;;;;11.27;100.00;99432.31;4898941;29;20036;-78
2023/04/01 11:00:07;;;;;;;19.00;11.10;;;;;;;11.17;100.00;99437.91;4910744;29;20028;-78
2023/04/01 11:02:51;;;;;;;18.27;11.32;;;;;;;11.27;100.00;99434.22;4892660;29;20035;-80
2023/04/01 11:05:41;;;;;;;15.80;11.00;;;;;;;11.27;100.00;99443.28;4927208;29;20480;-78
2023/04/01 11:08:31;;;;;;;16.98;10.93;;;;;;;11.36;100.00;99439.59;4903055;29;20072;-78
2023/04/01 11:11:47;;;;;;;22.52;11.90;;;;;;;11.37;100.00;99449.50;4918611;29;20032;-78
2023/04/01 11:14:31;;;;;;;19.80;11.25;;;;;;;11.35;100.00;99447.97;4878539;29;20095;-79
2023/04/01 11:17:25;;;;;;;22.48;11.73;;;;;;;11.40;100.00;99462.03;4877994;29;20111;-78
2023/04/01 11:20:04;;;;;;;21.35;11.35;;;;;;;11.27;100.00;99456.97;4884740;29;20497;-78
2023/04/01 11:22:32;;;;;;;19.40;11.35;;;;;;;11.29;100.00;99460.41;4915897;29;20068;-77
2023/04/01 11:25:35;;;;;;;22.00;13.20;;;;;;;11.48;100.00;99459.34;4913158;29;20059;-77
2023/04/01 11:28:25;;;;;;;27.58;12.55;;;;;;;11.16;100.00;99466.31;4903977;29;20068;-79
2023/04/01 11:31:11;;;;;;;20.38;12.93;;;;;;;11.21;100.00;99463.09;4899765;29;20032;-78
2023/04/01 11:33:51;;;;;;;17.52;11.95;;;;;;;11.24;100.00;99459.19;4906174;29;20032;-78
2023/04/01 11:36:32;;;;;;;19.70;12.27;;;;;;;11.25;100.00;99469.09;4903040;29;20115;-78
2023/04/01 11:39:33;;;;;;;19.15;12.13;;;;;;;11.22;100.00;99481.25;4887430;29;20024;-77
2023/04/01 11:42:17;;;;;;;23.73;12.20;;;;;;;11.08;100.00;99479.09;4887465;29;20039;-78
2023/04/01 11:44:58;;;;;;;18.40;11.40;;;;;;;10.95;100.00;99477.63;4934515;29;20048;-78
2023/04/01 11:47:29;;;;;;;20.40;11.43;;;;;;;11.13;100.00;99483.06;4919756;29;20036;-78
2023/04/01 11:49:58;;;;;;;21.55;11.68;;;;;;;11.23;100.00;99485.69;4902722;29;20119;-78
2023/04/01 11:52:59;;;;;;;22.08;13.25;;;;;;;11.33;100.00;99485.59;4919586;29;20059;-78
2023/04/01 11:55:43;;;;;;;15.93;10.65;;;;;;;11.47;100.00;99490.50;4903250;29;20035;-77
2023/04/01 11:58:28;;;;;;;19.00;11.50;;;;;;;11.53;100.00;99489.00;4879277;29;20036;-77
2023/04/01 12:00:56;;;;;;;18.17;12.02;;;;;;;11.72;100.00;99498.88;4918092;29;20039;-77